Terminal Aerodrome Forecast
Issued by NWS Nashville, TN

Home | Current Version | Previous Version | Text Only | Print | Product List | Glossary On
Versions: 1 2 3 4 5 6 7 8 9 10 11 12 13 14 15 16
000
FTUS44 KOHX 272225 AAA
TAFCSV
TAF AMD
KCSV 272225Z 2722/2818 10004KT 4SM -RA FEW040 SCT060 BKN090
     FM280000 VRB03KT 5SM BR SCT040 BKN250
     FM281100 00000KT 4SM BR SCT250
     FM281300 17007KT P6SM SCT050 BKN200=

USA.gov is the U.S. government's official web portal to all federal, state and local government web resources and services.